Terminal Aerodrome Forecast
Issued by NWS

Current Version | Previous Version | Text Only | Print | Product List | Glossary Off
Versions: 1 2 3 4 5 6 7 8 9 10 11 12 13 14 15 16 17 18 19 20 21 22 23 24

273
FTUS41 KILN 191746
TAFLUK
TAF
KLUK 191746Z 1918/2018 21017G27KT P6SM VCSH BKN040
     FM192300 20010KT P6SM SCT050 BKN100
     FM200600 19010G16KT P6SM SCT028 BKN050 WS020/21050KT
     FM201500 20014G22KT P6SM BKN045
     FM201700 20017G30KT P6SM BKN045=

USA.gov is the U.S. government's official web portal to all federal, state and local government web resources and services.